Take Maru No82 — JI3650 — position and weather

sailwx.info

Track history (hours):
 
Tides and Currents Weather Stations Pressure Air Temp Water Temp Dewpoint Dewpoint Depression Visibility Wind Speed Wind Dir Waves Ship Positions

Take Maru No82

Last reported at 2018-May-22 21:30 UTC. Time now 2018-May-22 21:31 UTC.
Position N 35°18' E 139°38'.

Length 42 m; draft 4 m.

Type: Tug. MMSI: 431300812.

Date/timePositionNaut miles runAvg speedWind from/ knotsBaromVisibWave heightAir tempDewpointWater temp
2018-May-22 21:30N 35°18' E 139°38'0 0.0
2018-May-22 21:00N 35°18' E 139°38'0 0.0
2018-May-22 20:30N 35°18' E 139°38'0 0.0
2018-May-22 20:00N 35°18' E 139°38'0 0.0
2018-May-22 19:30N 35°18' E 139°38'0 0.0
2018-May-22 19:00N 35°18' E 139°38'0 0.0
2018-May-22 18:30N 35°18' E 139°38'0 0.0
2018-May-22 18:00N 35°18' E 139°38'0 0.0
2018-May-22 17:30N 35°18' E 139°38'0 0.0
2018-May-22 17:00N 35°18' E 139°38'0 0.0
2018-May-22 16:30N 35°18' E 139°38'0 0.0
2018-May-22 16:00N 35°18' E 139°38'0 0.0
2018-May-22 15:29N 35°18' E 139°38'0 0.0
2018-May-22 15:00N 35°18' E 139°38'0 0.0
2018-May-22 14:30N 35°18' E 139°38'0 0.0
2018-May-22 14:00N 35°18' E 139°38'0 0.0
2018-May-22 13:30N 35°18' E 139°38'0 0.0
2018-May-22 13:00N 35°18' E 139°38'0 0.0
2018-May-22 12:29N 35°18' E 139°38'0 0.0
2018-May-22 11:54N 35°18' E 139°38'0 0.0
2018-May-22 11:30N 35°18' E 139°38'1 2.7
2018-May-22 11:00N 35°19' E 139°39'2 3.2
2018-May-22 10:30N 35°20' E 139°41'3 5.2
2018-May-22 10:00N 35°19' E 139°43'3 5.0
2018-May-22 09:30N 35°17' E 139°46'3 5.1
2018-May-22 09:00N 35°14' E 139°47'3 5.5
2018-May-22 08:30N 35°12' E 139°47'2 5.0
2018-May-22 08:00N 35°09' E 139°46'2 3.1
2018-May-22 07:30N 35°08' E 139°46'3 5.9
2018-May-22 07:00N 35°05' E 139°45'3 5.7
2018-May-22 06:30N 35°02' E 139°44'3 5.3
2018-May-22 06:00N 34°60' E 139°43'2 4.2
2018-May-22 05:30N 34°58' E 139°44'2 3.4
2018-May-22 04:54N 34°56' E 139°45'1 3.0
2018-May-22 04:30N 34°55' E 139°45'2 3.1
2018-May-22 03:55N 34°53' E 139°46'1 2.7
2018-May-22 03:30N 34°52' E 139°47'  
Track history (hours):
 
Tides and Currents Weather Stations Pressure Air Temp Water Temp Dewpoint Dewpoint Depression Visibility Wind Speed Wind Dir Waves Ship Positions

Take Maru No82

Last reported at 2018-May-22 21:30 UTC. Time now 2018-May-22 21:31 UTC.
Position N 35°18' E 139°38'.

Length 42 m; draft 4 m.

Type: Tug. MMSI: 431300812.

Date/timePositionNaut miles runAvg speedWind from/ knotsBaromVisibWave heightAir tempDewpointWater temp
2018-May-22 21:30N 35°18' E 139°38'0 0.0
2018-May-22 21:00N 35°18' E 139°38'0 0.0
2018-May-22 20:30N 35°18' E 139°38'0 0.0
2018-May-22 20:00N 35°18' E 139°38'0 0.0
2018-May-22 19:30N 35°18' E 139°38'0 0.0
2018-May-22 19:00N 35°18' E 139°38'0 0.0
2018-May-22 18:30N 35°18' E 139°38'0 0.0
2018-May-22 18:00N 35°18' E 139°38'0 0.0
2018-May-22 17:30N 35°18' E 139°38'0 0.0
2018-May-22 17:00N 35°18' E 139°38'0 0.0
2018-May-22 16:30N 35°18' E 139°38'0 0.0
2018-May-22 16:00N 35°18' E 139°38'0 0.0
2018-May-22 15:29N 35°18' E 139°38'0 0.0
2018-May-22 15:00N 35°18' E 139°38'0 0.0
2018-May-22 14:30N 35°18' E 139°38'0 0.0
2018-May-22 14:00N 35°18' E 139°38'0 0.0
2018-May-22 13:30N 35°18' E 139°38'0 0.0
2018-May-22 13:00N 35°18' E 139°38'0 0.0
2018-May-22 12:29N 35°18' E 139°38'0 0.0
2018-May-22 11:54N 35°18' E 139°38'0 0.0
2018-May-22 11:30N 35°18' E 139°38'1 2.7
2018-May-22 11:00N 35°19' E 139°39'2 3.2
2018-May-22 10:30N 35°20' E 139°41'3 5.2
2018-May-22 10:00N 35°19' E 139°43'3 5.0
2018-May-22 09:30N 35°17' E 139°46'3 5.1
2018-May-22 09:00N 35°14' E 139°47'3 5.5
2018-May-22 08:30N 35°12' E 139°47'2 5.0
2018-May-22 08:00N 35°09' E 139°46'2 3.1
2018-May-22 07:30N 35°08' E 139°46'3 5.9
2018-May-22 07:00N 35°05' E 139°45'3 5.7
2018-May-22 06:30N 35°02' E 139°44'3 5.3
2018-May-22 06:00N 34°60' E 139°43'2 4.2
2018-May-22 05:30N 34°58' E 139°44'2 3.4
2018-May-22 04:54N 34°56' E 139°45'1 3.0
2018-May-22 04:30N 34°55' E 139°45'2 3.1
2018-May-22 03:55N 34°53' E 139°46'1 2.7
2018-May-22 03:30N 34°52' E 139°47'  

Dump ship's entire track history